sensor_id;sensor_type;location;lat;lon;timestamp;P1;durP1;ratioP1;P2;durP2;ratioP2
27666;SDS011;15074;50.940;5.282;2024-02-04T00:00:30;13.02;;;11.55;;
27666;SDS011;15074;50.940;5.282;2024-02-04T00:02:55;13.75;;;12.13;;
27666;SDS011;15074;50.940;5.282;2024-02-04T00:05:21;19.40;;;12.25;;
27666;SDS011;15074;50.940;5.282;2024-02-04T00:07:47;17.25;;;11.70;;
27666;SDS011;15074;50.940;5.282;2024-02-04T00:10:12;14.68;;;12.25;;
27666;SDS011;15074;50.940;5.282;2024-02-04T00:12:40;14.85;;;11.63;;
27666;SDS011;15074;50.940;5.282;2024-02-04T00:15:06;15.70;;;12.75;;
27666;SDS011;15074;50.940;5.282;2024-02-04T00:17:33;14.77;;;12.07;;
27666;SDS011;15074;50.940;5.282;2024-02-04T00:19:59;13.50;;;11.98;;
27666;SDS011;15074;50.940;5.282;2024-02-04T00:22:26;14.32;;;11.80;;
27666;SDS011;15074;50.940;5.282;2024-02-04T00:24:52;13.90;;;12.35;;
27666;SDS011;15074;50.940;5.282;2024-02-04T00:27:18;14.88;;;12.15;;
27666;SDS011;15074;50.940;5.282;2024-02-04T00:29:43;13.45;;;11.68;;
27666;SDS011;15074;50.940;5.282;2024-02-04T00:32:09;16.52;;;11.75;;
27666;SDS011;15074;50.940;5.282;2024-02-04T00:34:35;15.85;;;11.20;;
27666;SDS011;15074;50.940;5.282;2024-02-04T00:37:00;13.50;;;10.93;;
27666;SDS011;15074;50.940;5.282;2024-02-04T00:39:26;19.40;;;12.35;;
27666;SDS011;15074;50.940;5.282;2024-02-04T00:41:52;16.00;;;12.02;;
27666;SDS011;15074;50.940;5.282;2024-02-04T00:44:17;13.10;;;11.55;;
27666;SDS011;15074;50.940;5.282;2024-02-04T00:46:43;16.13;;;11.30;;
27666;SDS011;15074;50.940;5.282;2024-02-04T00:49:09;14.05;;;12.55;;
27666;SDS011;15074;50.940;5.282;2024-02-04T00:51:35;18.73;;;13.25;;
27666;SDS011;15074;50.940;5.282;2024-02-04T00:54:00;13.73;;;11.75;;
27666;SDS011;15074;50.940;5.282;2024-02-04T00:56:26;13.07;;;10.70;;
27666;SDS011;15074;50.940;5.282;2024-02-04T00:58:52;16.77;;;11.57;;
27666;SDS011;15074;50.940;5.282;2024-02-04T01:01:18;14.70;;;11.45;;
27666;SDS011;15074;50.940;5.282;2024-02-04T01:03:44;15.63;;;10.80;;
27666;SDS011;15074;50.940;5.282;2024-02-04T01:06:11;12.07;;;10.88;;
27666;SDS011;15074;50.940;5.282;2024-02-04T01:08:36;11.80;;;10.32;;
27666;SDS011;15074;50.940;5.282;2024-02-04T01:11:03;11.10;;;9.75;;
27666;SDS011;15074;50.940;5.282;2024-02-04T01:13:32;11.65;;;9.10;;
27666;SDS011;15074;50.940;5.282;2024-02-04T01:15:57;10.55;;;9.20;;
27666;SDS011;15074;50.940;5.282;2024-02-04T01:18:23;9.75;;;7.63;;
27666;SDS011;15074;50.940;5.282;2024-02-04T01:20:49;10.57;;;8.32;;
27666;SDS011;15074;50.940;5.282;2024-02-04T01:23:15;11.35;;;8.43;;
27666;SDS011;15074;50.940;5.282;2024-02-04T01:25:42;8.20;;;7.15;;
27666;SDS011;15074;50.940;5.282;2024-02-04T01:28:08;9.63;;;6.60;;
27666;SDS011;15074;50.940;5.282;2024-02-04T01:30:34;10.50;;;7.80;;
27666;SDS011;15074;50.940;5.282;2024-02-04T01:33:00;8.52;;;6.85;;
27666;SDS011;15074;50.940;5.282;2024-02-04T01:35:25;10.05;;;7.18;;
27666;SDS011;15074;50.940;5.282;2024-02-04T01:37:51;7.97;;;7.10;;
27666;SDS011;15074;50.940;5.282;2024-02-04T01:40:17;16.33;;;7.10;;
27666;SDS011;15074;50.940;5.282;2024-02-04T01:42:42;7.15;;;6.45;;
27666;SDS011;15074;50.940;5.282;2024-02-04T01:45:08;10.63;;;7.53;;
27666;SDS011;15074;50.940;5.282;2024-02-04T01:47:34;6.80;;;6.10;;
27666;SDS011;15074;50.940;5.282;2024-02-04T01:50:00;8.50;;;6.57;;
27666;SDS011;15074;50.940;5.282;2024-02-04T01:52:28;8.85;;;6.97;;
27666;SDS011;15074;50.940;5.282;2024-02-04T01:54:54;7.55;;;6.03;;
27666;SDS011;15074;50.940;5.282;2024-02-04T01:57:20;7.95;;;6.15;;
27666;SDS011;15074;50.940;5.282;2024-02-04T01:59:47;9.35;;;6.18;;
27666;SDS011;15074;50.940;5.282;2024-02-04T02:02:13;6.45;;;5.45;;
27666;SDS011;15074;50.940;5.282;2024-02-04T02:04:39;7.22;;;5.70;;
27666;SDS011;15074;50.940;5.282;2024-02-04T02:07:05;7.35;;;5.00;;
27666;SDS011;15074;50.940;5.282;2024-02-04T02:09:32;7.00;;;5.40;;
27666;SDS011;15074;50.940;5.282;2024-02-04T02:12:03;6.72;;;5.78;;
27666;SDS011;15074;50.940;5.282;2024-02-04T02:14:36;6.85;;;5.63;;
27666;SDS011;15074;50.940;5.282;2024-02-04T02:17:12;7.63;;;5.82;;
27666;SDS011;15074;50.940;5.282;2024-02-04T02:19:54;7.65;;;5.30;;
27666;SDS011;15074;50.940;5.282;2024-02-04T02:22:30;8.60;;;5.55;;
27666;SDS011;15074;50.940;5.282;2024-02-04T02:25:00;6.63;;;5.72;;
27666;SDS011;15074;50.940;5.282;2024-02-04T02:27:29;7.25;;;5.60;;
27666;SDS011;15074;50.940;5.282;2024-02-04T02:29:55;7.47;;;5.45;;
27666;SDS011;15074;50.940;5.282;2024-02-04T02:32:21;6.13;;;5.45;;
27666;SDS011;15074;50.940;5.282;2024-02-04T02:34:47;9.18;;;5.82;;
27666;SDS011;15074;50.940;5.282;2024-02-04T02:40:01;6.72;;;5.55;;
27666;SDS011;15074;50.940;5.282;2024-02-04T02:42:33;6.25;;;5.47;;
27666;SDS011;15074;50.940;5.282;2024-02-04T02:45:01;6.75;;;6.05;;
27666;SDS011;15074;50.940;5.282;2024-02-04T02:47:28;5.68;;;4.75;;
27666;SDS011;15074;50.940;5.282;2024-02-04T02:49:54;5.93;;;5.15;;
27666;SDS011;15074;50.940;5.282;2024-02-04T02:52:20;8.32;;;5.78;;
27666;SDS011;15074;50.940;5.282;2024-02-04T02:54:47;6.80;;;4.78;;
27666;SDS011;15074;50.940;5.282;2024-02-04T02:57:12;7.68;;;4.72;;
27666;SDS011;15074;50.940;5.282;2024-02-04T02:59:38;7.65;;;5.28;;
27666;SDS011;15074;50.940;5.282;2024-02-04T03:02:04;7.20;;;6.15;;
27666;SDS011;15074;50.940;5.282;2024-02-04T03:04:29;7.72;;;6.05;;
27666;SDS011;15074;50.940;5.282;2024-02-04T03:06:55;15.15;;;6.47;;
27666;SDS011;15074;50.940;5.282;2024-02-04T03:09:21;7.97;;;5.63;;
27666;SDS011;15074;50.940;5.282;2024-02-04T03:11:46;10.48;;;6.97;;
27666;SDS011;15074;50.940;5.282;2024-02-04T03:14:13;8.68;;;6.75;;
27666;SDS011;15074;50.940;5.282;2024-02-04T03:16:43;7.75;;;6.47;;
27666;SDS011;15074;50.940;5.282;2024-02-04T03:19:11;8.32;;;6.65;;
27666;SDS011;15074;50.940;5.282;2024-02-04T03:21:37;9.88;;;6.03;;
27666;SDS011;15074;50.940;5.282;2024-02-04T03:24:03;7.70;;;6.88;;
27666;SDS011;15074;50.940;5.282;2024-02-04T03:26:28;9.63;;;6.60;;
27666;SDS011;15074;50.940;5.282;2024-02-04T03:28:54;11.38;;;7.30;;
27666;SDS011;15074;50.940;5.282;2024-02-04T03:31:20;9.52;;;7.43;;
27666;SDS011;15074;50.940;5.282;2024-02-04T03:33:46;8.27;;;7.10;;
27666;SDS011;15074;50.940;5.282;2024-02-04T03:36:12;11.27;;;7.93;;
27666;SDS011;15074;50.940;5.282;2024-02-04T03:38:40;7.93;;;7.07;;
27666;SDS011;15074;50.940;5.282;2024-02-04T03:41:05;8.98;;;7.22;;
27666;SDS011;15074;50.940;5.282;2024-02-04T03:43:31;9.52;;;7.55;;
27666;SDS011;15074;50.940;5.282;2024-02-04T03:45:57;10.50;;;8.18;;
27666;SDS011;15074;50.940;5.282;2024-02-04T03:48:22;10.60;;;8.10;;
27666;SDS011;15074;50.940;5.282;2024-02-04T03:50:48;11.73;;;8.38;;
27666;SDS011;15074;50.940;5.282;2024-02-04T03:53:14;12.68;;;8.35;;
27666;SDS011;15074;50.940;5.282;2024-02-04T03:55:39;13.70;;;8.70;;
27666;SDS011;15074;50.940;5.282;2024-02-04T03:58:05;9.73;;;7.13;;
27666;SDS011;15074;50.940;5.282;2024-02-04T04:00:31;10.40;;;7.70;;
27666;SDS011;15074;50.940;5.282;2024-02-04T04:02:56;10.52;;;7.28;;
27666;SDS011;15074;50.940;5.282;2024-02-04T04:05:22;9.27;;;7.72;;
27666;SDS011;15074;50.940;5.282;2024-02-04T04:07:47;7.78;;;6.97;;
27666;SDS011;15074;50.940;5.282;2024-02-04T04:10:13;10.75;;;7.20;;
27666;SDS011;15074;50.940;5.282;2024-02-04T04:12:39;9.10;;;7.68;;
27666;SDS011;15074;50.940;5.282;2024-02-04T04:15:05;10.10;;;6.38;;
27666;SDS011;15074;50.940;5.282;2024-02-04T04:17:30;9.25;;;7.68;;
27666;SDS011;15074;50.940;5.282;2024-02-04T04:19:56;10.50;;;7.13;;
27666;SDS011;15074;50.940;5.282;2024-02-04T04:22:22;12.82;;;7.03;;
27666;SDS011;15074;50.940;5.282;2024-02-04T04:24:47;7.88;;;7.07;;
27666;SDS011;15074;50.940;5.282;2024-02-04T04:27:13;8.75;;;6.43;;
27666;SDS011;15074;50.940;5.282;2024-02-04T04:29:38;7.20;;;6.35;;
27666;SDS011;15074;50.940;5.282;2024-02-04T04:32:04;9.25;;;6.85;;
27666;SDS011;15074;50.940;5.282;2024-02-04T04:34:30;7.95;;;7.05;;
27666;SDS011;15074;50.940;5.282;2024-02-04T04:36:56;11.20;;;6.88;;
27666;SDS011;15074;50.940;5.282;2024-02-04T04:39:21;7.38;;;6.45;;
27666;SDS011;15074;50.940;5.282;2024-02-04T04:41:47;10.57;;;6.95;;
27666;SDS011;15074;50.940;5.282;2024-02-04T04:44:13;12.10;;;6.45;;
27666;SDS011;15074;50.940;5.282;2024-02-04T04:46:38;11.15;;;7.05;;
27666;SDS011;15074;50.940;5.282;2024-02-04T04:49:05;10.68;;;7.28;;
27666;SDS011;15074;50.940;5.282;2024-02-04T04:51:31;11.20;;;7.25;;
27666;SDS011;15074;50.940;5.282;2024-02-04T04:53:57;10.48;;;7.63;;
27666;SDS011;15074;50.940;5.282;2024-02-04T04:56:23;9.98;;;6.75;;
27666;SDS011;15074;50.940;5.282;2024-02-04T04:58:48;10.38;;;6.97;;
27666;SDS011;15074;50.940;5.282;2024-02-04T05:01:15;12.77;;;6.45;;
27666;SDS011;15074;50.940;5.282;2024-02-04T05:03:41;9.45;;;7.18;;
27666;SDS011;15074;50.940;5.282;2024-02-04T05:06:07;11.38;;;7.55;;
27666;SDS011;15074;50.940;5.282;2024-02-04T05:08:33;8.60;;;6.18;;
27666;SDS011;15074;50.940;5.282;2024-02-04T05:10:58;11.20;;;6.88;;
27666;SDS011;15074;50.940;5.282;2024-02-04T05:13:24;10.50;;;8.38;;
27666;SDS011;15074;50.940;5.282;2024-02-04T05:15:50;9.60;;;7.40;;
27666;SDS011;15074;50.940;5.282;2024-02-04T05:18:15;7.30;;;5.63;;
27666;SDS011;15074;50.940;5.282;2024-02-04T05:20:41;10.30;;;6.50;;
27666;SDS011;15074;50.940;5.282;2024-02-04T05:23:08;9.27;;;6.15;;
27666;SDS011;15074;50.940;5.282;2024-02-04T05:25:34;10.00;;;6.35;;
27666;SDS011;15074;50.940;5.282;2024-02-04T05:28:00;8.63;;;5.72;;
27666;SDS011;15074;50.940;5.282;2024-02-04T05:30:25;9.40;;;6.22;;
27666;SDS011;15074;50.940;5.282;2024-02-04T05:32:51;8.30;;;5.85;;
27666;SDS011;15074;50.940;5.282;2024-02-04T05:35:17;10.48;;;6.63;;
27666;SDS011;15074;50.940;5.282;2024-02-04T05:37:42;8.18;;;5.70;;
27666;SDS011;15074;50.940;5.282;2024-02-04T05:40:08;9.95;;;6.53;;
27666;SDS011;15074;50.940;5.282;2024-02-04T05:42:34;7.85;;;6.70;;
27666;SDS011;15074;50.940;5.282;2024-02-04T05:45:01;12.27;;;6.67;;
27666;SDS011;15074;50.940;5.282;2024-02-04T05:47:28;7.07;;;5.68;;
27666;SDS011;15074;50.940;5.282;2024-02-04T05:49:53;6.55;;;5.20;;
27666;SDS011;15074;50.940;5.282;2024-02-04T05:52:19;8.98;;;6.10;;
27666;SDS011;15074;50.940;5.282;2024-02-04T05:54:44;7.70;;;5.32;;
27666;SDS011;15074;50.940;5.282;2024-02-04T05:57:10;9.27;;;6.28;;
27666;SDS011;15074;50.940;5.282;2024-02-04T05:59:36;7.95;;;4.32;;
27666;SDS011;15074;50.940;5.282;2024-02-04T06:02:03;7.72;;;5.10;;
27666;SDS011;15074;50.940;5.282;2024-02-04T06:04:29;7.95;;;4.82;;
27666;SDS011;15074;50.940;5.282;2024-02-04T06:06:55;7.70;;;4.22;;
27666;SDS011;15074;50.940;5.282;2024-02-04T06:09:21;6.55;;;4.22;;
27666;SDS011;15074;50.940;5.282;2024-02-04T06:11:46;5.72;;;3.78;;
27666;SDS011;15074;50.940;5.282;2024-02-04T06:14:12;6.20;;;4.28;;
27666;SDS011;15074;50.940;5.282;2024-02-04T06:16:38;5.70;;;4.18;;
27666;SDS011;15074;50.940;5.282;2024-02-04T06:19:04;5.82;;;4.47;;
27666;SDS011;15074;50.940;5.282;2024-02-04T06:21:30;6.25;;;3.67;;
27666;SDS011;15074;50.940;5.282;2024-02-04T06:23:56;7.28;;;3.75;;
27666;SDS011;15074;50.940;5.282;2024-02-04T06:26:22;6.05;;;4.05;;
27666;SDS011;15074;50.940;5.282;2024-02-04T06:28:47;7.05;;;4.03;;
27666;SDS011;15074;50.940;5.282;2024-02-04T06:31:15;6.00;;;4.25;;
27666;SDS011;15074;50.940;5.282;2024-02-04T06:33:41;5.47;;;4.03;;
27666;SDS011;15074;50.940;5.282;2024-02-04T06:36:10;9.43;;;5.10;;
27666;SDS011;15074;50.940;5.282;2024-02-04T06:38:36;6.97;;;4.47;;
27666;SDS011;15074;50.940;5.282;2024-02-04T06:41:03;5.25;;;4.20;;
27666;SDS011;15074;50.940;5.282;2024-02-04T06:43:29;8.75;;;4.38;;
27666;SDS011;15074;50.940;5.282;2024-02-04T06:45:54;6.57;;;4.57;;
27666;SDS011;15074;50.940;5.282;2024-02-04T06:48:20;10.00;;;4.35;;
27666;SDS011;15074;50.940;5.282;2024-02-04T06:50:46;7.53;;;4.85;;
27666;SDS011;15074;50.940;5.282;2024-02-04T06:53:13;6.22;;;4.75;;
27666;SDS011;15074;50.940;5.282;2024-02-04T06:55:39;7.63;;;4.30;;
27666;SDS011;15074;50.940;5.282;2024-02-04T06:58:04;11.75;;;5.35;;
27666;SDS011;15074;50.940;5.282;2024-02-04T07:00:30;7.10;;;4.95;;
27666;SDS011;15074;50.940;5.282;2024-02-04T07:02:55;7.78;;;4.65;;
27666;SDS011;15074;50.940;5.282;2024-02-04T07:05:21;10.32;;;5.43;;
27666;SDS011;15074;50.940;5.282;2024-02-04T07:07:47;10.80;;;6.18;;
27666;SDS011;15074;50.940;5.282;2024-02-04T07:10:14;10.48;;;5.95;;
27666;SDS011;15074;50.940;5.282;2024-02-04T07:12:40;11.68;;;5.70;;
27666;SDS011;15074;50.940;5.282;2024-02-04T07:15:06;9.02;;;5.13;;
27666;SDS011;15074;50.940;5.282;2024-02-04T07:17:33;10.18;;;5.88;;
27666;SDS011;15074;50.940;5.282;2024-02-04T07:19:59;11.45;;;6.70;;
27666;SDS011;15074;50.940;5.282;2024-02-04T07:22:26;11.70;;;7.43;;
27666;SDS011;15074;50.940;5.282;2024-02-04T07:24:51;13.13;;;5.75;;
27666;SDS011;15074;50.940;5.282;2024-02-04T07:27:17;9.75;;;6.43;;
27666;SDS011;15074;50.940;5.282;2024-02-04T07:29:43;11.00;;;7.25;;
27666;SDS011;15074;50.940;5.282;2024-02-04T07:32:08;11.68;;;7.30;;
27666;SDS011;15074;50.940;5.282;2024-02-04T07:34:34;10.40;;;6.15;;
27666;SDS011;15074;50.940;5.282;2024-02-04T07:37:00;10.45;;;6.00;;
27666;SDS011;15074;50.940;5.282;2024-02-04T07:39:26;9.32;;;6.20;;
27666;SDS011;15074;50.940;5.282;2024-02-04T07:41:51;11.65;;;5.90;;
27666;SDS011;15074;50.940;5.282;2024-02-04T07:44:19;10.88;;;5.90;;
27666;SDS011;15074;50.940;5.282;2024-02-04T07:46:44;6.90;;;5.47;;
27666;SDS011;15074;50.940;5.282;2024-02-04T07:49:10;12.57;;;6.82;;
27666;SDS011;15074;50.940;5.282;2024-02-04T07:51:36;7.93;;;5.88;;
27666;SDS011;15074;50.940;5.282;2024-02-04T07:54:02;10.70;;;5.38;;
27666;SDS011;15074;50.940;5.282;2024-02-04T07:56:29;12.15;;;5.53;;
27666;SDS011;15074;50.940;5.282;2024-02-04T07:58:54;13.05;;;6.32;;
27666;SDS011;15074;50.940;5.282;2024-02-04T08:01:20;6.70;;;5.20;;
27666;SDS011;15074;50.940;5.282;2024-02-04T08:03:45;8.82;;;5.88;;
27666;SDS011;15074;50.940;5.282;2024-02-04T08:06:12;6.13;;;4.35;;
27666;SDS011;15074;50.940;5.282;2024-02-04T08:08:38;7.47;;;5.43;;
27666;SDS011;15074;50.940;5.282;2024-02-04T08:11:03;6.57;;;4.57;;
27666;SDS011;15074;50.940;5.282;2024-02-04T08:13:29;8.35;;;5.07;;
27666;SDS011;15074;50.940;5.282;2024-02-04T08:15:55;8.38;;;4.85;;
27666;SDS011;15074;50.940;5.282;2024-02-04T08:18:20;9.27;;;5.32;;
27666;SDS011;15074;50.940;5.282;2024-02-04T08:20:46;12.27;;;5.10;;
27666;SDS011;15074;50.940;5.282;2024-02-04T08:23:11;8.65;;;5.18;;
27666;SDS011;15074;50.940;5.282;2024-02-04T08:25:37;12.73;;;6.05;;
27666;SDS011;15074;50.940;5.282;2024-02-04T08:28:03;7.93;;;5.75;;
27666;SDS011;15074;50.940;5.282;2024-02-04T08:30:29;8.45;;;5.22;;
27666;SDS011;15074;50.940;5.282;2024-02-04T08:32:54;8.60;;;5.35;;
27666;SDS011;15074;50.940;5.282;2024-02-04T08:35:22;11.23;;;5.60;;
27666;SDS011;15074;50.940;5.282;2024-02-04T08:37:47;12.07;;;5.45;;
27666;SDS011;15074;50.940;5.282;2024-02-04T08:40:13;12.40;;;5.55;;
27666;SDS011;15074;50.940;5.282;2024-02-04T08:42:39;9.80;;;6.60;;
27666;SDS011;15074;50.940;5.282;2024-02-04T08:45:05;16.38;;;7.05;;
27666;SDS011;15074;50.940;5.282;2024-02-04T08:47:31;11.88;;;6.95;;
27666;SDS011;15074;50.940;5.282;2024-02-04T08:49:56;13.35;;;7.22;;
27666;SDS011;15074;50.940;5.282;2024-02-04T08:52:22;8.07;;;5.85;;
27666;SDS011;15074;50.940;5.282;2024-02-04T08:54:49;10.10;;;6.93;;
27666;SDS011;15074;50.940;5.282;2024-02-04T08:57:15;10.32;;;5.47;;
27666;SDS011;15074;50.940;5.282;2024-02-04T08:59:41;8.73;;;5.90;;
27666;SDS011;15074;50.940;5.282;2024-02-04T09:02:07;9.05;;;5.97;;
27666;SDS011;15074;50.940;5.282;2024-02-04T09:04:33;13.15;;;6.60;;
27666;SDS011;15074;50.940;5.282;2024-02-04T09:07:05;13.70;;;6.40;;
27666;SDS011;15074;50.940;5.282;2024-02-04T09:09:32;7.68;;;6.13;;
27666;SDS011;15074;50.940;5.282;2024-02-04T09:11:57;9.35;;;5.55;;
27666;SDS011;15074;50.940;5.282;2024-02-04T09:14:23;8.85;;;5.25;;
27666;SDS011;15074;50.940;5.282;2024-02-04T09:16:49;9.63;;;5.97;;
27666;SDS011;15074;50.940;5.282;2024-02-04T09:19:14;9.55;;;4.82;;
27666;SDS011;15074;50.940;5.282;2024-02-04T09:21:40;7.18;;;5.22;;
27666;SDS011;15074;50.940;5.282;2024-02-04T09:24:07;6.13;;;4.80;;
27666;SDS011;15074;50.940;5.282;2024-02-04T09:26:32;6.40;;;4.75;;
27666;SDS011;15074;50.940;5.282;2024-02-04T09:28:58;6.80;;;4.40;;
27666;SDS011;15074;50.940;5.282;2024-02-04T09:31:24;7.53;;;4.20;;
27666;SDS011;15074;50.940;5.282;2024-02-04T09:33:50;5.95;;;4.03;;
27666;SDS011;15074;50.940;5.282;2024-02-04T09:36:15;7.10;;;4.03;;
27666;SDS011;15074;50.940;5.282;2024-02-04T09:38:41;5.40;;;3.95;;
27666;SDS011;15074;50.940;5.282;2024-02-04T09:41:06;4.93;;;2.95;;
27666;SDS011;15074;50.940;5.282;2024-02-04T09:43:32;5.55;;;3.53;;
27666;SDS011;15074;50.940;5.282;2024-02-04T09:46:00;5.22;;;3.60;;
27666;SDS011;15074;50.940;5.282;2024-02-04T09:48:26;4.13;;;3.00;;
27666;SDS011;15074;50.940;5.282;2024-02-04T09:50:56;6.22;;;3.58;;
27666;SDS011;15074;50.940;5.282;2024-02-04T09:53:25;7.20;;;3.42;;
27666;SDS011;15074;50.940;5.282;2024-02-04T09:56:29;9.20;;;3.38;;
27666;SDS011;15074;50.940;5.282;2024-02-04T09:59:04;5.43;;;3.37;;
27666;SDS011;15074;50.940;5.282;2024-02-04T10:01:45;4.18;;;2.72;;
27666;SDS011;15074;50.940;5.282;2024-02-04T10:04:15;4.63;;;2.97;;
27666;SDS011;15074;50.940;5.282;2024-02-04T10:06:41;4.07;;;2.88;;
27666;SDS011;15074;50.940;5.282;2024-02-04T10:09:07;4.43;;;3.20;;
27666;SDS011;15074;50.940;5.282;2024-02-04T10:11:32;5.00;;;2.50;;
27666;SDS011;15074;50.940;5.282;2024-02-04T10:13:58;9.30;;;3.15;;
27666;SDS011;15074;50.940;5.282;2024-02-04T10:16:26;4.15;;;2.97;;
27666;SDS011;15074;50.940;5.282;2024-02-04T10:18:53;4.78;;;2.50;;
27666;SDS011;15074;50.940;5.282;2024-02-04T10:23:48;3.97;;;2.40;;
27666;SDS011;15074;50.940;5.282;2024-02-04T10:26:15;5.03;;;2.95;;
27666;SDS011;15074;50.940;5.282;2024-02-04T10:28:42;7.07;;;3.17;;
27666;SDS011;15074;50.940;5.282;2024-02-04T10:31:09;3.08;;;2.30;;
27666;SDS011;15074;50.940;5.282;2024-02-04T10:33:35;4.70;;;2.80;;
27666;SDS011;15074;50.940;5.282;2024-02-04T10:36:02;2.95;;;2.00;;
27666;SDS011;15074;50.940;5.282;2024-02-04T10:38:28;5.82;;;2.38;;
27666;SDS011;15074;50.940;5.282;2024-02-04T10:40:54;4.43;;;2.65;;
27666;SDS011;15074;50.940;5.282;2024-02-04T10:43:20;3.13;;;1.80;;
27666;SDS011;15074;50.940;5.282;2024-02-04T10:45:47;2.20;;;1.42;;
27666;SDS011;15074;50.940;5.282;2024-02-04T10:48:19;4.20;;;1.85;;
27666;SDS011;15074;50.940;5.282;2024-02-04T10:50:47;2.95;;;1.80;;
27666;SDS011;15074;50.940;5.282;2024-02-04T10:53:16;3.65;;;1.70;;
27666;SDS011;15074;50.940;5.282;2024-02-04T10:55:46;3.78;;;2.03;;
27666;SDS011;15074;50.940;5.282;2024-02-04T10:58:13;2.22;;;1.58;;
27666;SDS011;15074;50.940;5.282;2024-02-04T11:00:40;3.25;;;1.73;;
27666;SDS011;15074;50.940;5.282;2024-02-04T11:03:06;3.83;;;2.20;;
27666;SDS011;15074;50.940;5.282;2024-02-04T11:05:33;3.13;;;1.90;;
27666;SDS011;15074;50.940;5.282;2024-02-04T11:08:01;3.20;;;2.00;;
27666;SDS011;15074;50.940;5.282;2024-02-04T11:10:29;2.70;;;1.83;;
27666;SDS011;15074;50.940;5.282;2024-02-04T11:12:57;2.72;;;1.85;;
27666;SDS011;15074;50.940;5.282;2024-02-04T11:15:24;3.70;;;1.92;;
27666;SDS011;15074;50.940;5.282;2024-02-04T11:23:29;3.47;;;1.83;;
27666;SDS011;15074;50.940;5.282;2024-02-04T11:26:27;2.90;;;2.00;;
27666;SDS011;15074;50.940;5.282;2024-02-04T11:28:53;3.38;;;1.95;;
27666;SDS011;15074;50.940;5.282;2024-02-04T11:31:19;3.25;;;2.40;;
27666;SDS011;15074;50.940;5.282;2024-02-04T11:33:45;4.63;;;2.38;;
27666;SDS011;15074;50.940;5.282;2024-02-04T11:36:14;3.30;;;2.70;;
27666;SDS011;15074;50.940;5.282;2024-02-04T11:38:43;3.92;;;2.95;;
27666;SDS011;15074;50.940;5.282;2024-02-04T11:41:21;5.80;;;2.78;;
27666;SDS011;15074;50.940;5.282;2024-02-04T11:43:51;5.18;;;3.17;;
27666;SDS011;15074;50.940;5.282;2024-02-04T11:46:36;3.22;;;2.33;;
27666;SDS011;15074;50.940;5.282;2024-02-04T11:49:14;3.65;;;2.40;;
27666;SDS011;15074;50.940;5.282;2024-02-04T11:51:48;4.68;;;2.50;;
27666;SDS011;15074;50.940;5.282;2024-02-04T11:54:19;4.78;;;2.65;;
27666;SDS011;15074;50.940;5.282;2024-02-04T11:56:47;3.33;;;2.22;;
27666;SDS011;15074;50.940;5.282;2024-02-04T11:59:25;4.03;;;2.28;;
27666;SDS011;15074;50.940;5.282;2024-02-04T12:01:55;3.25;;;2.30;;
27666;SDS011;15074;50.940;5.282;2024-02-04T12:04:22;4.43;;;1.83;;
27666;SDS011;15074;50.940;5.282;2024-02-04T12:06:48;5.68;;;2.05;;
27666;SDS011;15074;50.940;5.282;2024-02-04T12:09:16;4.50;;;2.67;;
27666;SDS011;15074;50.940;5.282;2024-02-04T12:11:47;9.85;;;2.40;;
27666;SDS011;15074;50.940;5.282;2024-02-04T12:14:13;3.53;;;1.73;;
27666;SDS011;15074;50.940;5.282;2024-02-04T12:16:40;2.43;;;1.70;;
27666;SDS011;15074;50.940;5.282;2024-02-04T12:19:06;2.88;;;1.50;;
27666;SDS011;15074;50.940;5.282;2024-02-04T12:21:32;2.85;;;1.70;;
27666;SDS011;15074;50.940;5.282;2024-02-04T12:23:59;2.10;;;1.55;;
27666;SDS011;15074;50.940;5.282;2024-02-04T12:26:25;4.00;;;1.75;;
27666;SDS011;15074;50.940;5.282;2024-02-04T12:28:51;1.77;;;1.50;;
27666;SDS011;15074;50.940;5.282;2024-02-04T12:31:20;2.58;;;1.80;;
27666;SDS011;15074;50.940;5.282;2024-02-04T12:33:56;2.25;;;1.50;;
27666;SDS011;15074;50.940;5.282;2024-02-04T12:36:29;4.43;;;1.80;;
27666;SDS011;15074;50.940;5.282;2024-02-04T12:38:57;2.72;;;1.40;;
27666;SDS011;15074;50.940;5.282;2024-02-04T12:41:25;2.13;;;1.42;;
27666;SDS011;15074;50.940;5.282;2024-02-04T12:43:56;3.17;;;1.73;;
27666;SDS011;15074;50.940;5.282;2024-02-04T12:46:25;3.50;;;1.85;;
27666;SDS011;15074;50.940;5.282;2024-02-04T12:48:55;3.92;;;1.40;;
27666;SDS011;15074;50.940;5.282;2024-02-04T12:51:28;3.10;;;1.60;;
27666;SDS011;15074;50.940;5.282;2024-02-04T12:56:46;1.88;;;1.30;;
27666;SDS011;15074;50.940;5.282;2024-02-04T12:59:32;3.17;;;1.50;;
27666;SDS011;15074;50.940;5.282;2024-02-04T13:02:04;2.35;;;1.50;;
27666;SDS011;15074;50.940;5.282;2024-02-04T13:04:40;2.60;;;1.48;;
27666;SDS011;15074;50.940;5.282;2024-02-04T13:09:35;3.15;;;1.50;;
27666;SDS011;15074;50.940;5.282;2024-02-04T13:12:08;1.85;;;1.50;;
27666;SDS011;15074;50.940;5.282;2024-02-04T13:14:38;2.78;;;1.73;;
27666;SDS011;15074;50.940;5.282;2024-02-04T13:17:04;1.80;;;1.38;;
27666;SDS011;15074;50.940;5.282;2024-02-04T13:19:37;2.58;;;1.38;;
27666;SDS011;15074;50.940;5.282;2024-02-04T13:22:07;2.33;;;1.70;;
27666;SDS011;15074;50.940;5.282;2024-02-04T13:24:37;5.45;;;1.60;;
27666;SDS011;15074;50.940;5.282;2024-02-04T13:27:04;3.08;;;1.83;;
27666;SDS011;15074;50.940;5.282;2024-02-04T13:31:59;2.30;;;2.10;;
27666;SDS011;15074;50.940;5.282;2024-02-04T13:34:24;2.10;;;1.60;;
27666;SDS011;15074;50.940;5.282;2024-02-04T13:36:50;2.35;;;1.63;;
27666;SDS011;15074;50.940;5.282;2024-02-04T13:39:17;2.10;;;1.52;;
27666;SDS011;15074;50.940;5.282;2024-02-04T13:41:43;3.30;;;1.80;;
27666;SDS011;15074;50.940;5.282;2024-02-04T13:44:09;2.45;;;1.48;;
27666;SDS011;15074;50.940;5.282;2024-02-04T13:46:35;13.73;;;2.50;;
27666;SDS011;15074;50.940;5.282;2024-02-04T13:49:02;3.60;;;1.80;;
27666;SDS011;15074;50.940;5.282;2024-02-04T13:51:28;2.42;;;1.67;;
27666;SDS011;15074;50.940;5.282;2024-02-04T13:53:54;3.00;;;2.05;;
27666;SDS011;15074;50.940;5.282;2024-02-04T13:56:20;2.22;;;1.65;;
27666;SDS011;15074;50.940;5.282;2024-02-04T13:58:45;3.00;;;1.70;;
27666;SDS011;15074;50.940;5.282;2024-02-04T14:01:11;1.60;;;1.35;;
27666;SDS011;15074;50.940;5.282;2024-02-04T14:03:38;4.60;;;1.23;;
27666;SDS011;15074;50.940;5.282;2024-02-04T14:06:04;1.67;;;1.48;;
27666;SDS011;15074;50.940;5.282;2024-02-04T14:08:29;2.35;;;1.30;;
27666;SDS011;15074;50.940;5.282;2024-02-04T14:10:55;2.45;;;1.20;;
27666;SDS011;15074;50.940;5.282;2024-02-04T14:13:21;1.90;;;1.40;;
27666;SDS011;15074;50.940;5.282;2024-02-04T14:15:47;11.75;;;1.40;;
27666;SDS011;15074;50.940;5.282;2024-02-04T14:18:13;1.33;;;1.00;;
27666;SDS011;15074;50.940;5.282;2024-02-04T14:20:38;1.85;;;1.10;;
27666;SDS011;15074;50.940;5.282;2024-02-04T14:23:04;1.23;;;0.90;;
27666;SDS011;15074;50.940;5.282;2024-02-04T14:25:30;2.42;;;1.15;;
27666;SDS011;15074;50.940;5.282;2024-02-04T14:27:56;1.48;;;0.90;;
27666;SDS011;15074;50.940;5.282;2024-02-04T14:30:21;1.00;;;0.90;;
27666;SDS011;15074;50.940;5.282;2024-02-04T14:32:47;1.83;;;1.00;;
27666;SDS011;15074;50.940;5.282;2024-02-04T14:35:13;1.45;;;0.93;;
27666;SDS011;15074;50.940;5.282;2024-02-04T14:37:38;1.00;;;0.90;;
27666;SDS011;15074;50.940;5.282;2024-02-04T14:40:05;2.47;;;1.80;;
27666;SDS011;15074;50.940;5.282;2024-02-04T14:42:31;2.35;;;0.90;;
27666;SDS011;15074;50.940;5.282;2024-02-04T14:44:57;1.23;;;0.80;;
27666;SDS011;15074;50.940;5.282;2024-02-04T14:47:25;1.45;;;0.90;;
27666;SDS011;15074;50.940;5.282;2024-02-04T14:49:55;2.75;;;0.88;;
27666;SDS011;15074;50.940;5.282;2024-02-04T14:52:21;1.05;;;0.90;;
27666;SDS011;15074;50.940;5.282;2024-02-04T14:54:46;1.30;;;0.95;;
27666;SDS011;15074;50.940;5.282;2024-02-04T14:57:12;1.40;;;1.05;;
27666;SDS011;15074;50.940;5.282;2024-02-04T14:59:41;1.15;;;1.02;;